sensor_id;sensor_type;location;lat;lon;timestamp;temperature;humidity
44823;DHT22;51097;51.984;5.650;2022-10-16T00:00:56;16.20;99.90
44823;DHT22;51097;51.984;5.650;2022-10-16T00:03:22;16.20;99.90
44823;DHT22;51097;51.984;5.650;2022-10-16T00:05:47;16.30;99.90
44823;DHT22;51097;51.984;5.650;2022-10-16T00:08:13;16.30;99.90
44823;DHT22;51097;51.984;5.650;2022-10-16T00:10:39;16.20;99.90
44823;DHT22;51097;51.984;5.650;2022-10-16T00:13:05;16.30;99.90
44823;DHT22;51097;51.984;5.650;2022-10-16T00:15:36;16.10;99.90
44823;DHT22;51097;51.984;5.650;2022-10-16T00:18:03;16.10;99.90
44823;DHT22;51097;51.984;5.650;2022-10-16T00:20:29;16.10;99.90
44823;DHT22;51097;51.984;5.650;2022-10-16T00:22:56;16.20;99.90
44823;DHT22;51097;51.984;5.650;2022-10-16T00:25:22;16.10;99.90
44823;DHT22;51097;51.984;5.650;2022-10-16T00:27:48;16.10;99.90
44823;DHT22;51097;51.984;5.650;2022-10-16T00:30:13;16.10;99.90
44823;DHT22;51097;51.984;5.650;2022-10-16T00:32:39;16.10;99.90
44823;DHT22;51097;51.984;5.650;2022-10-16T00:35:05;16.20;99.90
44823;DHT22;51097;51.984;5.650;2022-10-16T00:37:30;16.10;99.90
44823;DHT22;51097;51.984;5.650;2022-10-16T00:39:56;16.10;99.90
44823;DHT22;51097;51.984;5.650;2022-10-16T00:42:22;16.00;99.90
44823;DHT22;51097;51.984;5.650;2022-10-16T00:47:32;16.00;99.90
44823;DHT22;51097;51.984;5.650;2022-10-16T00:52:27;16.00;99.90
44823;DHT22;51097;51.984;5.650;2022-10-16T00:54:54;16.10;99.90
44823;DHT22;51097;51.984;5.650;2022-10-16T00:57:20;16.00;99.90
44823;DHT22;51097;51.984;5.650;2022-10-16T00:59:45;16.10;99.90
44823;DHT22;51097;51.984;5.650;2022-10-16T01:02:13;16.00;99.90
44823;DHT22;51097;51.984;5.650;2022-10-16T01:04:42;16.00;99.90
44823;DHT22;51097;51.984;5.650;2022-10-16T01:12:58;16.10;99.90
44823;DHT22;51097;51.984;5.650;2022-10-16T01:20:31;16.10;99.90
44823;DHT22;51097;51.984;5.650;2022-10-16T01:23:06;16.20;99.90
44823;DHT22;51097;51.984;5.650;2022-10-16T01:28:25;16.20;99.90
44823;DHT22;51097;51.984;5.650;2022-10-16T01:30:56;16.20;99.90
44823;DHT22;51097;51.984;5.650;2022-10-16T01:33:43;16.20;99.90
44823;DHT22;51097;51.984;5.650;2022-10-16T01:36:16;16.20;99.90
44823;DHT22;51097;51.984;5.650;2022-10-16T01:38:45;16.30;99.90
44823;DHT22;51097;51.984;5.650;2022-10-16T01:41:26;16.40;99.90
44823;DHT22;51097;51.984;5.650;2022-10-16T01:43:56;16.40;99.90
44823;DHT22;51097;51.984;5.650;2022-10-16T01:46:23;16.40;99.90
44823;DHT22;51097;51.984;5.650;2022-10-16T01:48:51;16.40;99.90
44823;DHT22;51097;51.984;5.650;2022-10-16T01:51:18;16.40;99.90
44823;DHT22;51097;51.984;5.650;2022-10-16T01:53:49;16.40;99.90
44823;DHT22;51097;51.984;5.650;2022-10-16T01:56:18;16.40;99.90
44823;DHT22;51097;51.984;5.650;2022-10-16T01:58:48;16.50;99.90
44823;DHT22;51097;51.984;5.650;2022-10-16T02:01:19;16.60;99.90
44823;DHT22;51097;51.984;5.650;2022-10-16T02:03:46;16.70;99.90
44823;DHT22;51097;51.984;5.650;2022-10-16T02:06:15;16.60;99.90
44823;DHT22;51097;51.984;5.650;2022-10-16T02:08:41;16.60;99.90
44823;DHT22;51097;51.984;5.650;2022-10-16T02:11:09;16.60;99.90
44823;DHT22;51097;51.984;5.650;2022-10-16T02:14:06;16.50;99.90
44823;DHT22;51097;51.984;5.650;2022-10-16T02:16:38;16.50;99.90
44823;DHT22;51097;51.984;5.650;2022-10-16T02:19:05;16.60;99.90
44823;DHT22;51097;51.984;5.650;2022-10-16T02:29:49;16.50;99.90
44823;DHT22;51097;51.984;5.650;2022-10-16T02:32:21;16.50;99.90
44823;DHT22;51097;51.984;5.650;2022-10-16T02:34:49;16.40;99.90
44823;DHT22;51097;51.984;5.650;2022-10-16T02:37:16;16.50;99.90
44823;DHT22;51097;51.984;5.650;2022-10-16T02:39:43;16.60;99.90
44823;DHT22;51097;51.984;5.650;2022-10-16T02:42:13;16.60;99.90
44823;DHT22;51097;51.984;5.650;2022-10-16T02:44:39;16.70;99.90
44823;DHT22;51097;51.984;5.650;2022-10-16T02:47:05;16.50;99.90
44823;DHT22;51097;51.984;5.650;2022-10-16T02:49:30;16.50;99.90
44823;DHT22;51097;51.984;5.650;2022-10-16T02:51:56;16.50;99.90
44823;DHT22;51097;51.984;5.650;2022-10-16T02:54:21;16.50;99.90
44823;DHT22;51097;51.984;5.650;2022-10-16T02:56:47;16.50;99.90
44823;DHT22;51097;51.984;5.650;2022-10-16T02:59:12;16.50;99.90
44823;DHT22;51097;51.984;5.650;2022-10-16T03:01:38;16.50;99.90
44823;DHT22;51097;51.984;5.650;2022-10-16T03:04:03;16.50;99.90
44823;DHT22;51097;51.984;5.650;2022-10-16T03:06:29;16.50;99.90
44823;DHT22;51097;51.984;5.650;2022-10-16T03:08:54;16.50;99.90
44823;DHT22;51097;51.984;5.650;2022-10-16T03:11:20;16.50;99.90
44823;DHT22;51097;51.984;5.650;2022-10-16T03:13:46;16.50;99.90
44823;DHT22;51097;51.984;5.650;2022-10-16T03:16:11;16.50;99.90
44823;DHT22;51097;51.984;5.650;2022-10-16T03:18:37;16.60;99.90
44823;DHT22;51097;51.984;5.650;2022-10-16T03:21:02;16.50;99.90
44823;DHT22;51097;51.984;5.650;2022-10-16T03:23:28;16.50;99.90
44823;DHT22;51097;51.984;5.650;2022-10-16T03:25:54;16.50;99.90
44823;DHT22;51097;51.984;5.650;2022-10-16T03:28:19;16.50;99.90
44823;DHT22;51097;51.984;5.650;2022-10-16T03:30:45;16.50;99.90
44823;DHT22;51097;51.984;5.650;2022-10-16T03:33:10;16.60;99.90
44823;DHT22;51097;51.984;5.650;2022-10-16T03:35:36;16.60;99.90
44823;DHT22;51097;51.984;5.650;2022-10-16T03:38:02;16.60;99.90
44823;DHT22;51097;51.984;5.650;2022-10-16T03:40:27;16.60;99.90
44823;DHT22;51097;51.984;5.650;2022-10-16T03:42:53;16.50;99.90
44823;DHT22;51097;51.984;5.650;2022-10-16T03:45:22;16.50;99.90
44823;DHT22;51097;51.984;5.650;2022-10-16T03:47:48;16.50;99.90
44823;DHT22;51097;51.984;5.650;2022-10-16T03:50:13;16.60;99.90
44823;DHT22;51097;51.984;5.650;2022-10-16T03:52:39;16.60;99.90
44823;DHT22;51097;51.984;5.650;2022-10-16T03:55:05;16.60;99.90
44823;DHT22;51097;51.984;5.650;2022-10-16T03:57:31;16.50;99.90
44823;DHT22;51097;51.984;5.650;2022-10-16T03:59:56;16.50;99.90
44823;DHT22;51097;51.984;5.650;2022-10-16T04:02:22;16.50;99.90
44823;DHT22;51097;51.984;5.650;2022-10-16T04:04:47;16.50;99.90
44823;DHT22;51097;51.984;5.650;2022-10-16T04:07:13;16.50;99.90
44823;DHT22;51097;51.984;5.650;2022-10-16T04:09:38;16.30;99.90
44823;DHT22;51097;51.984;5.650;2022-10-16T04:12:04;16.40;99.90
44823;DHT22;51097;51.984;5.650;2022-10-16T04:14:29;16.50;99.90
44823;DHT22;51097;51.984;5.650;2022-10-16T04:16:55;16.40;99.90
44823;DHT22;51097;51.984;5.650;2022-10-16T04:19:20;16.40;99.90
44823;DHT22;51097;51.984;5.650;2022-10-16T04:21:46;16.40;99.90
44823;DHT22;51097;51.984;5.650;2022-10-16T04:24:11;16.50;99.90
44823;DHT22;51097;51.984;5.650;2022-10-16T04:26:37;16.40;99.90
44823;DHT22;51097;51.984;5.650;2022-10-16T04:29:03;16.40;99.90
44823;DHT22;51097;51.984;5.650;2022-10-16T04:31:28;16.40;99.90
44823;DHT22;51097;51.984;5.650;2022-10-16T04:33:54;16.40;99.90
44823;DHT22;51097;51.984;5.650;2022-10-16T04:36:19;16.50;99.90
44823;DHT22;51097;51.984;5.650;2022-10-16T04:38:45;16.50;99.90
44823;DHT22;51097;51.984;5.650;2022-10-16T04:41:10;16.30;99.90
44823;DHT22;51097;51.984;5.650;2022-10-16T04:43:36;16.30;99.90
44823;DHT22;51097;51.984;5.650;2022-10-16T04:46:02;16.30;99.90
44823;DHT22;51097;51.984;5.650;2022-10-16T04:48:30;16.40;99.90
44823;DHT22;51097;51.984;5.650;2022-10-16T04:50:55;16.40;99.90
44823;DHT22;51097;51.984;5.650;2022-10-16T04:53:21;16.30;99.90
44823;DHT22;51097;51.984;5.650;2022-10-16T04:55:46;16.40;99.90
44823;DHT22;51097;51.984;5.650;2022-10-16T04:58:12;16.40;99.90
44823;DHT22;51097;51.984;5.650;2022-10-16T05:00:38;16.40;99.90
44823;DHT22;51097;51.984;5.650;2022-10-16T05:03:04;16.40;99.90
44823;DHT22;51097;51.984;5.650;2022-10-16T05:05:33;16.20;99.90
44823;DHT22;51097;51.984;5.650;2022-10-16T05:07:58;16.30;99.90
44823;DHT22;51097;51.984;5.650;2022-10-16T05:10:24;16.40;99.90
44823;DHT22;51097;51.984;5.650;2022-10-16T05:12:49;16.30;99.90
44823;DHT22;51097;51.984;5.650;2022-10-16T05:15:16;16.20;99.90
44823;DHT22;51097;51.984;5.650;2022-10-16T05:17:42;16.20;99.90
44823;DHT22;51097;51.984;5.650;2022-10-16T05:20:08;16.30;99.90
44823;DHT22;51097;51.984;5.650;2022-10-16T05:22:33;16.30;99.90
44823;DHT22;51097;51.984;5.650;2022-10-16T05:24:59;16.20;99.90
44823;DHT22;51097;51.984;5.650;2022-10-16T05:27:24;16.10;99.90
44823;DHT22;51097;51.984;5.650;2022-10-16T05:29:50;16.10;99.90
44823;DHT22;51097;51.984;5.650;2022-10-16T05:32:17;16.10;99.90
44823;DHT22;51097;51.984;5.650;2022-10-16T05:34:44;16.10;99.90
44823;DHT22;51097;51.984;5.650;2022-10-16T05:37:10;16.10;99.90
44823;DHT22;51097;51.984;5.650;2022-10-16T05:39:37;16.10;99.90
44823;DHT22;51097;51.984;5.650;2022-10-16T05:42:03;16.00;99.90
44823;DHT22;51097;51.984;5.650;2022-10-16T05:44:28;16.00;99.90
44823;DHT22;51097;51.984;5.650;2022-10-16T05:46:54;15.90;99.90
44823;DHT22;51097;51.984;5.650;2022-10-16T05:49:20;15.90;99.90
44823;DHT22;51097;51.984;5.650;2022-10-16T05:51:45;15.90;99.90
44823;DHT22;51097;51.984;5.650;2022-10-16T05:54:11;15.90;99.90
44823;DHT22;51097;51.984;5.650;2022-10-16T05:56:37;15.90;99.90
44823;DHT22;51097;51.984;5.650;2022-10-16T05:59:03;15.90;99.90
44823;DHT22;51097;51.984;5.650;2022-10-16T06:01:29;15.90;99.90
44823;DHT22;51097;51.984;5.650;2022-10-16T06:03:56;16.00;99.90
44823;DHT22;51097;51.984;5.650;2022-10-16T06:06:23;16.00;99.90
44823;DHT22;51097;51.984;5.650;2022-10-16T06:08:51;15.90;99.90
44823;DHT22;51097;51.984;5.650;2022-10-16T06:11:19;15.90;99.90
44823;DHT22;51097;51.984;5.650;2022-10-16T06:13:49;16.00;99.90
44823;DHT22;51097;51.984;5.650;2022-10-16T06:16:15;16.00;99.90
44823;DHT22;51097;51.984;5.650;2022-10-16T06:18:41;16.00;99.90
44823;DHT22;51097;51.984;5.650;2022-10-16T06:21:12;16.00;99.90
44823;DHT22;51097;51.984;5.650;2022-10-16T06:23:39;15.90;99.90
44823;DHT22;51097;51.984;5.650;2022-10-16T06:26:09;15.90;99.90
44823;DHT22;51097;51.984;5.650;2022-10-16T06:28:35;16.00;99.90
44823;DHT22;51097;51.984;5.650;2022-10-16T06:31:02;15.90;99.90
44823;DHT22;51097;51.984;5.650;2022-10-16T06:33:28;16.10;99.90
44823;DHT22;51097;51.984;5.650;2022-10-16T06:35:53;16.10;99.90
44823;DHT22;51097;51.984;5.650;2022-10-16T06:38:19;16.30;99.90
44823;DHT22;51097;51.984;5.650;2022-10-16T06:40:44;16.10;99.90
44823;DHT22;51097;51.984;5.650;2022-10-16T06:43:10;16.20;99.90
44823;DHT22;51097;51.984;5.650;2022-10-16T06:45:36;16.20;99.90
44823;DHT22;51097;51.984;5.650;2022-10-16T06:48:01;16.20;99.90
44823;DHT22;51097;51.984;5.650;2022-10-16T06:50:27;16.20;99.90
44823;DHT22;51097;51.984;5.650;2022-10-16T06:52:52;16.40;99.90
44823;DHT22;51097;51.984;5.650;2022-10-16T06:55:18;16.30;99.90
44823;DHT22;51097;51.984;5.650;2022-10-16T06:57:46;16.40;99.90
44823;DHT22;51097;51.984;5.650;2022-10-16T07:00:12;16.30;99.90
44823;DHT22;51097;51.984;5.650;2022-10-16T07:02:37;16.40;99.90
44823;DHT22;51097;51.984;5.650;2022-10-16T07:05:03;16.50;99.90
44823;DHT22;51097;51.984;5.650;2022-10-16T07:07:29;16.50;99.90
44823;DHT22;51097;51.984;5.650;2022-10-16T07:09:55;16.40;99.90
44823;DHT22;51097;51.984;5.650;2022-10-16T07:12:20;16.50;99.90
44823;DHT22;51097;51.984;5.650;2022-10-16T07:14:46;16.50;99.90
44823;DHT22;51097;51.984;5.650;2022-10-16T07:17:11;16.60;99.90
44823;DHT22;51097;51.984;5.650;2022-10-16T07:19:37;16.70;99.90
44823;DHT22;51097;51.984;5.650;2022-10-16T07:22:03;16.70;99.90
44823;DHT22;51097;51.984;5.650;2022-10-16T07:24:28;16.70;99.90
44823;DHT22;51097;51.984;5.650;2022-10-16T07:26:54;16.70;99.90
44823;DHT22;51097;51.984;5.650;2022-10-16T07:29:21;16.80;99.90
44823;DHT22;51097;51.984;5.650;2022-10-16T07:31:48;16.80;99.90
44823;DHT22;51097;51.984;5.650;2022-10-16T07:34:15;16.80;99.90
44823;DHT22;51097;51.984;5.650;2022-10-16T07:36:41;16.70;99.90
44823;DHT22;51097;51.984;5.650;2022-10-16T07:39:08;16.80;99.90
44823;DHT22;51097;51.984;5.650;2022-10-16T07:41:33;16.70;99.90
44823;DHT22;51097;51.984;5.650;2022-10-16T07:44:02;16.90;99.90
44823;DHT22;51097;51.984;5.650;2022-10-16T07:46:28;16.90;99.90
44823;DHT22;51097;51.984;5.650;2022-10-16T07:48:54;17.00;99.90
44823;DHT22;51097;51.984;5.650;2022-10-16T07:51:21;17.20;99.90
44823;DHT22;51097;51.984;5.650;2022-10-16T07:53:48;17.10;99.90
44823;DHT22;51097;51.984;5.650;2022-10-16T07:56:15;17.20;99.90
44823;DHT22;51097;51.984;5.650;2022-10-16T07:58:41;17.30;99.90
44823;DHT22;51097;51.984;5.650;2022-10-16T08:01:09;17.20;99.90
44823;DHT22;51097;51.984;5.650;2022-10-16T08:03:35;17.20;99.90
44823;DHT22;51097;51.984;5.650;2022-10-16T08:06:01;17.10;99.90
44823;DHT22;51097;51.984;5.650;2022-10-16T08:08:27;17.30;99.90
44823;DHT22;51097;51.984;5.650;2022-10-16T08:10:53;17.20;99.90
44823;DHT22;51097;51.984;5.650;2022-10-16T08:13:19;17.30;99.90
44823;DHT22;51097;51.984;5.650;2022-10-16T08:15:45;17.30;99.90
44823;DHT22;51097;51.984;5.650;2022-10-16T08:18:12;17.40;99.90
44823;DHT22;51097;51.984;5.650;2022-10-16T08:20:39;17.30;99.90
44823;DHT22;51097;51.984;5.650;2022-10-16T08:23:05;17.30;99.90
44823;DHT22;51097;51.984;5.650;2022-10-16T08:25:34;17.50;99.90
44823;DHT22;51097;51.984;5.650;2022-10-16T08:28:00;17.50;99.90
44823;DHT22;51097;51.984;5.650;2022-10-16T08:30:28;17.40;99.90
44823;DHT22;51097;51.984;5.650;2022-10-16T08:32:53;17.50;99.90
44823;DHT22;51097;51.984;5.650;2022-10-16T08:35:19;17.50;99.90
44823;DHT22;51097;51.984;5.650;2022-10-16T08:37:45;17.60;99.90
44823;DHT22;51097;51.984;5.650;2022-10-16T08:40:25;17.70;99.90
44823;DHT22;51097;51.984;5.650;2022-10-16T08:43:11;17.60;99.90
44823;DHT22;51097;51.984;5.650;2022-10-16T08:50:50;17.70;99.90
44823;DHT22;51097;51.984;5.650;2022-10-16T08:53:30;17.70;99.90
44823;DHT22;51097;51.984;5.650;2022-10-16T08:55:56;17.80;99.90
44823;DHT22;51097;51.984;5.650;2022-10-16T08:58:27;17.90;99.90
44823;DHT22;51097;51.984;5.650;2022-10-16T09:00:56;17.90;99.90
44823;DHT22;51097;51.984;5.650;2022-10-16T09:03:45;18.10;99.90
44823;DHT22;51097;51.984;5.650;2022-10-16T09:09:06;18.00;99.90
44823;DHT22;51097;51.984;5.650;2022-10-16T09:11:52;18.10;99.90
44823;DHT22;51097;51.984;5.650;2022-10-16T09:20:28;18.40;99.90
44823;DHT22;51097;51.984;5.650;2022-10-16T09:23:12;18.40;99.90
44823;DHT22;51097;51.984;5.650;2022-10-16T09:25:42;18.70;99.90
44823;DHT22;51097;51.984;5.650;2022-10-16T09:28:09;18.50;99.90
44823;DHT22;51097;51.984;5.650;2022-10-16T09:30:35;18.60;99.90
44823;DHT22;51097;51.984;5.650;2022-10-16T09:33:02;18.70;99.90
44823;DHT22;51097;51.984;5.650;2022-10-16T09:38:07;18.70;99.90
44823;DHT22;51097;51.984;5.650;2022-10-16T09:40:38;18.80;99.90
44823;DHT22;51097;51.984;5.650;2022-10-16T09:43:25;18.80;99.90
44823;DHT22;51097;51.984;5.650;2022-10-16T09:45:55;18.80;99.90
44823;DHT22;51097;51.984;5.650;2022-10-16T09:48:21;18.90;99.90
44823;DHT22;51097;51.984;5.650;2022-10-16T09:50:59;19.00;99.90
44823;DHT22;51097;51.984;5.650;2022-10-16T09:53:36;19.00;99.90
44823;DHT22;51097;51.984;5.650;2022-10-16T09:56:02;19.10;99.90
44823;DHT22;51097;51.984;5.650;2022-10-16T09:58:30;19.10;99.90
44823;DHT22;51097;51.984;5.650;2022-10-16T10:00:58;19.10;99.90
44823;DHT22;51097;51.984;5.650;2022-10-16T10:03:44;19.30;99.90
44823;DHT22;51097;51.984;5.650;2022-10-16T10:09:02;19.20;99.90
44823;DHT22;51097;51.984;5.650;2022-10-16T10:11:52;19.30;99.90
44823;DHT22;51097;51.984;5.650;2022-10-16T10:14:41;19.40;99.90
44823;DHT22;51097;51.984;5.650;2022-10-16T10:17:26;19.50;99.90
44823;DHT22;51097;51.984;5.650;2022-10-16T10:20:00;19.50;99.90
44823;DHT22;51097;51.984;5.650;2022-10-16T10:30:58;19.70;99.90
44823;DHT22;51097;51.984;5.650;2022-10-16T10:39:08;19.90;99.90
44823;DHT22;51097;51.984;5.650;2022-10-16T10:41:55;19.90;99.90
44823;DHT22;51097;51.984;5.650;2022-10-16T10:45:36;19.90;99.90
44823;DHT22;51097;51.984;5.650;2022-10-16T11:01:01;20.50;99.90
44823;DHT22;51097;51.984;5.650;2022-10-16T11:06:08;20.70;99.90
44823;DHT22;51097;51.984;5.650;2022-10-16T11:08:47;20.60;99.90
44823;DHT22;51097;51.984;5.650;2022-10-16T11:11:35;20.80;99.90
44823;DHT22;51097;51.984;5.650;2022-10-16T11:14:21;20.80;99.90
44823;DHT22;51097;51.984;5.650;2022-10-16T11:17:01;20.90;99.90
44823;DHT22;51097;51.984;5.650;2022-10-16T11:22:27;21.20;99.90
44823;DHT22;51097;51.984;5.650;2022-10-16T11:30:31;21.20;99.90
44823;DHT22;51097;51.984;5.650;2022-10-16T11:38:20;21.40;99.90
44823;DHT22;51097;51.984;5.650;2022-10-16T11:40:50;21.50;99.90
44823;DHT22;51097;51.984;5.650;2022-10-16T11:43:35;21.70;99.90
44823;DHT22;51097;51.984;5.650;2022-10-16T11:46:10;21.60;99.90
44823;DHT22;51097;51.984;5.650;2022-10-16T11:48:43;21.60;99.90
44823;DHT22;51097;51.984;5.650;2022-10-16T11:51:36;21.60;99.90
44823;DHT22;51097;51.984;5.650;2022-10-16T11:54:28;21.70;99.90
44823;DHT22;51097;51.984;5.650;2022-10-16T11:56:59;21.80;99.90
44823;DHT22;51097;51.984;5.650;2022-10-16T12:02:09;22.00;99.90
44823;DHT22;51097;51.984;5.650;2022-10-16T12:04:48;22.10;99.90
44823;DHT22;51097;51.984;5.650;2022-10-16T12:07:18;22.10;99.90
44823;DHT22;51097;51.984;5.650;2022-10-16T12:09:47;22.40;99.90
44823;DHT22;51097;51.984;5.650;2022-10-16T12:12:27;22.60;99.90
44823;DHT22;51097;51.984;5.650;2022-10-16T12:15:19;22.60;99.90
44823;DHT22;51097;51.984;5.650;2022-10-16T12:17:46;22.50;99.90
44823;DHT22;51097;51.984;5.650;2022-10-16T12:22:41;22.60;99.90
44823;DHT22;51097;51.984;5.650;2022-10-16T12:28:05;22.70;99.90
44823;DHT22;51097;51.984;5.650;2022-10-16T12:30:34;22.60;99.90
44823;DHT22;51097;51.984;5.650;2022-10-16T12:33:05;22.70;99.90
44823;DHT22;51097;51.984;5.650;2022-10-16T12:35:43;22.90;99.90
44823;DHT22;51097;51.984;5.650;2022-10-16T12:38:18;22.70;99.90
44823;DHT22;51097;51.984;5.650;2022-10-16T12:41:03;22.70;99.90
44823;DHT22;51097;51.984;5.650;2022-10-16T12:48:34;22.70;99.90
44823;DHT22;51097;51.984;5.650;2022-10-16T12:54:03;22.70;99.90
44823;DHT22;51097;51.984;5.650;2022-10-16T12:59:29;22.60;99.90
44823;DHT22;51097;51.984;5.650;2022-10-16T13:02:03;22.50;99.90
44823;DHT22;51097;51.984;5.650;2022-10-16T13:07:15;22.70;99.90
44823;DHT22;51097;51.984;5.650;2022-10-16T13:10:09;22.60;99.90
44823;DHT22;51097;51.984;5.650;2022-10-16T13:18:21;22.80;99.90
44823;DHT22;51097;51.984;5.650;2022-10-16T13:21:21;23.00;99.90
44823;DHT22;51097;51.984;5.650;2022-10-16T13:24:19;23.10;99.90
44823;DHT22;51097;51.984;5.650;2022-10-16T13:30:42;23.30;99.90
44823;DHT22;51097;51.984;5.650;2022-10-16T13:35:53;23.50;99.90
44823;DHT22;51097;51.984;5.650;2022-10-16T13:38:21;23.60;99.90
44823;DHT22;51097;51.984;5.650;2022-10-16T13:40:54;23.80;99.90
44823;DHT22;51097;51.984;5.650;2022-10-16T13:45:54;24.10;99.90
44823;DHT22;51097;51.984;5.650;2022-10-16T13:48:20;24.10;99.90
44823;DHT22;51097;51.984;5.650;2022-10-16T13:50:45;24.20;99.90
44823;DHT22;51097;51.984;5.650;2022-10-16T13:53:14;24.20;99.90
44823;DHT22;51097;51.984;5.650;2022-10-16T13:55:40;24.30;99.90
44823;DHT22;51097;51.984;5.650;2022-10-16T13:58:13;24.40;99.90
44823;DHT22;51097;51.984;5.650;2022-10-16T14:00:39;24.50;99.90
44823;DHT22;51097;51.984;5.650;2022-10-16T14:03:13;24.40;99.90
44823;DHT22;51097;51.984;5.650;2022-10-16T14:05:47;24.60;99.70
44823;DHT22;51097;51.984;5.650;2022-10-16T14:08:14;24.50;99.90
44823;DHT22;51097;51.984;5.650;2022-10-16T14:10:40;24.40;99.90
44823;DHT22;51097;51.984;5.650;2022-10-16T14:13:07;24.50;99.90
44823;DHT22;51097;51.984;5.650;2022-10-16T14:15:35;24.70;99.90
44823;DHT22;51097;51.984;5.650;2022-10-16T14:18:02;24.60;99.70
44823;DHT22;51097;51.984;5.650;2022-10-16T14:20:31;24.50;99.30
44823;DHT22;51097;51.984;5.650;2022-10-16T14:23:03;24.60;99.90
44823;DHT22;51097;51.984;5.650;2022-10-16T14:25:31;24.50;99.90
44823;DHT22;51097;51.984;5.650;2022-10-16T14:28:03;24.50;99.90
44823;DHT22;51097;51.984;5.650;2022-10-16T14:30:29;24.50;99.90
44823;DHT22;51097;51.984;5.650;2022-10-16T14:32:58;24.50;99.60
44823;DHT22;51097;51.984;5.650;2022-10-16T14:35:36;24.50;99.90
44823;DHT22;51097;51.984;5.650;2022-10-16T14:38:04;24.40;99.30
44823;DHT22;51097;51.984;5.650;2022-10-16T14:40:36;24.40;99.70
44823;DHT22;51097;51.984;5.650;2022-10-16T14:43:04;24.40;99.60
44823;DHT22;51097;51.984;5.650;2022-10-16T14:45:32;24.20;99.10
44823;DHT22;51097;51.984;5.650;2022-10-16T14:48:04;24.20;99.70
44823;DHT22;51097;51.984;5.650;2022-10-16T14:50:31;24.10;99.90
44823;DHT22;51097;51.984;5.650;2022-10-16T14:52:56;24.00;99.90
44823;DHT22;51097;51.984;5.650;2022-10-16T14:55:23;24.00;99.90
44823;DHT22;51097;51.984;5.650;2022-10-16T14:57:49;24.00;99.90
44823;DHT22;51097;51.984;5.650;2022-10-16T15:00:19;23.90;99.90
44823;DHT22;51097;51.984;5.650;2022-10-16T15:02:46;23.90;99.90
44823;DHT22;51097;51.984;5.650;2022-10-16T15:05:19;23.90;99.90
44823;DHT22;51097;51.984;5.650;2022-10-16T15:07:46;23.90;99.90
44823;DHT22;51097;51.984;5.650;2022-10-16T15:10:16;23.80;99.90
44823;DHT22;51097;51.984;5.650;2022-10-16T15:12:42;23.70;99.90
44823;DHT22;51097;51.984;5.650;2022-10-16T15:15:35;23.70;99.90
44823;DHT22;51097;51.984;5.650;2022-10-16T15:18:02;23.70;99.90
44823;DHT22;51097;51.984;5.650;2022-10-16T15:20:31;23.60;99.90
44823;DHT22;51097;51.984;5.650;2022-10-16T15:23:21;23.40;99.90
44823;DHT22;51097;51.984;5.650;2022-10-16T15:25:53;23.50;99.90
44823;DHT22;51097;51.984;5.650;2022-10-16T15:28:19;23.50;99.90
44823;DHT22;51097;51.984;5.650;2022-10-16T15:30:46;23.40;99.90
44823;DHT22;51097;51.984;5.650;2022-10-16T15:33:20;23.40;99.90
44823;DHT22;51097;51.984;5.650;2022-10-16T15:35:48;23.40;99.90
44823;DHT22;51097;51.984;5.650;2022-10-16T15:38:15;23.30;99.90
44823;DHT22;51097;51.984;5.650;2022-10-16T15:40:41;23.20;99.90
44823;DHT22;51097;51.984;5.650;2022-10-16T15:43:06;23.20;99.90
44823;DHT22;51097;51.984;5.650;2022-10-16T15:45:32;23.20;99.90
44823;DHT22;51097;51.984;5.650;2022-10-16T15:47:58;23.10;99.90
44823;DHT22;51097;51.984;5.650;2022-10-16T15:50:24;23.00;99.90
44823;DHT22;51097;51.984;5.650;2022-10-16T15:52:50;23.00;99.90
44823;DHT22;51097;51.984;5.650;2022-10-16T15:55:16;22.80;99.90
44823;DHT22;51097;51.984;5.650;2022-10-16T15:57:42;22.80;99.90
44823;DHT22;51097;51.984;5.650;2022-10-16T16:00:13;22.70;99.90
44823;DHT22;51097;51.984;5.650;2022-10-16T16:02:40;22.70;99.90
44823;DHT22;51097;51.984;5.650;2022-10-16T16:05:07;22.60;99.90
44823;DHT22;51097;51.984;5.650;2022-10-16T16:07:37;22.40;99.90
44823;DHT22;51097;51.984;5.650;2022-10-16T16:10:05;22.40;99.90
44823;DHT22;51097;51.984;5.650;2022-10-16T16:12:31;22.30;99.90
44823;DHT22;51097;51.984;5.650;2022-10-16T16:14:57;22.20;99.90
44823;DHT22;51097;51.984;5.650;2022-10-16T16:17:22;22.00;99.90
44823;DHT22;51097;51.984;5.650;2022-10-16T16:19:49;22.00;99.90
44823;DHT22;51097;51.984;5.650;2022-10-16T16:22:15;21.80;99.90
44823;DHT22;51097;51.984;5.650;2022-10-16T16:24:40;21.80;99.90
44823;DHT22;51097;51.984;5.650;2022-10-16T16:27:06;21.80;99.90
44823;DHT22;51097;51.984;5.650;2022-10-16T16:29:32;21.60;99.90
44823;DHT22;51097;51.984;5.650;2022-10-16T16:31:59;21.60;99.90
44823;DHT22;51097;51.984;5.650;2022-10-16T16:34:26;21.50;99.90
44823;DHT22;51097;51.984;5.650;2022-10-16T16:36:52;21.50;99.90
44823;DHT22;51097;51.984;5.650;2022-10-16T16:39:17;21.40;99.90
44823;DHT22;51097;51.984;5.650;2022-10-16T16:41:43;21.30;99.90
44823;DHT22;51097;51.984;5.650;2022-10-16T16:44:11;21.20;99.90
44823;DHT22;51097;51.984;5.650;2022-10-16T16:46:37;21.10;99.90
44823;DHT22;51097;51.984;5.650;2022-10-16T16:49:06;20.90;99.90
44823;DHT22;51097;51.984;5.650;2022-10-16T16:51:32;20.90;99.90
44823;DHT22;51097;51.984;5.650;2022-10-16T16:53:58;20.80;99.90
44823;DHT22;51097;51.984;5.650;2022-10-16T16:56:25;20.70;99.90
44823;DHT22;51097;51.984;5.650;2022-10-16T16:58:53;20.70;99.90
44823;DHT22;51097;51.984;5.650;2022-10-16T17:01:19;20.60;99.90
44823;DHT22;51097;51.984;5.650;2022-10-16T17:03:47;20.60;99.90
44823;DHT22;51097;51.984;5.650;2022-10-16T17:06:14;20.60;99.90
44823;DHT22;51097;51.984;5.650;2022-10-16T17:08:40;20.50;99.90
44823;DHT22;51097;51.984;5.650;2022-10-16T17:11:10;20.50;99.90
44823;DHT22;51097;51.984;5.650;2022-10-16T17:13:36;20.40;99.90
44823;DHT22;51097;51.984;5.650;2022-10-16T17:16:04;20.30;99.90
44823;DHT22;51097;51.984;5.650;2022-10-16T17:18:30;20.30;99.90
44823;DHT22;51097;51.984;5.650;2022-10-16T17:20:59;20.20;99.90
44823;DHT22;51097;51.984;5.650;2022-10-16T17:23:25;20.10;99.90
44823;DHT22;51097;51.984;5.650;2022-10-16T17:25:51;20.10;99.90
44823;DHT22;51097;51.984;5.650;2022-10-16T17:28:16;20.10;99.90
44823;DHT22;51097;51.984;5.650;2022-10-16T17:30:42;20.20;99.90
44823;DHT22;51097;51.984;5.650;2022-10-16T17:33:10;20.10;99.90
44823;DHT22;51097;51.984;5.650;2022-10-16T17:35:41;19.80;99.90
44823;DHT22;51097;51.984;5.650;2022-10-16T17:38:07;19.90;99.90
44823;DHT22;51097;51.984;5.650;2022-10-16T17:40:33;19.90;99.90
44823;DHT22;51097;51.984;5.650;2022-10-16T17:42:59;19.80;99.90
44823;DHT22;51097;51.984;5.650;2022-10-16T17:45:25;19.80;99.90
44823;DHT22;51097;51.984;5.650;2022-10-16T17:47:51;19.80;99.90